createdAt,value
2023-10-04T00:00:48.570Z,1015.41
2023-10-04T00:01:48.567Z,1015.41
2023-10-04T00:02:48.628Z,1015.43
2023-10-04T00:03:48.794Z,1015.43
2023-10-04T00:04:48.602Z,1015.42
2023-10-04T00:05:48.542Z,1015.44
2023-10-04T00:06:48.506Z,1015.43
2023-10-04T00:07:48.494Z,1015.42
2023-10-04T00:08:48.476Z,1015.43
2023-10-04T00:09:48.496Z,1015.45
2023-10-04T00:10:48.452Z,1015.45
2023-10-04T00:11:48.502Z,1015.45
2023-10-04T00:12:48.436Z,1015.44
2023-10-04T00:13:48.449Z,1015.44
2023-10-04T00:14:48.401Z,1015.43
2023-10-04T00:15:48.424Z,1015.45
2023-10-04T00:16:48.392Z,1015.46
2023-10-04T00:17:48.497Z,1015.48
2023-10-04T00:18:48.399Z,1015.45
2023-10-04T00:19:48.374Z,1015.46
2023-10-04T00:20:48.354Z,1015.47
2023-10-04T00:21:48.357Z,1015.46
2023-10-04T00:22:48.331Z,1015.47
2023-10-04T00:23:48.356Z,1015.48
2023-10-04T00:24:48.314Z,1015.49
2023-10-04T00:25:48.299Z,1015.47
2023-10-04T00:26:48.279Z,1015.48
2023-10-04T00:27:48.289Z,1015.48
2023-10-04T00:28:48.262Z,1015.50
2023-10-04T00:29:48.308Z,1015.51
2023-10-04T00:30:48.242Z,1015.51
2023-10-04T00:31:48.268Z,1015.51
2023-10-04T00:32:48.684Z,1015.50
2023-10-04T00:33:48.260Z,1015.50
2023-10-04T00:34:48.209Z,1015.50
2023-10-04T00:35:48.239Z,1015.48
2023-10-04T00:36:48.170Z,1015.49
2023-10-04T00:37:48.172Z,1015.51
2023-10-04T00:38:48.193Z,1015.53
2023-10-04T00:39:48.152Z,1015.57
2023-10-04T00:40:48.125Z,1015.55
2023-10-04T00:41:48.129Z,1015.56
2023-10-04T00:42:48.112Z,1015.56
2023-10-04T00:43:48.125Z,1015.55
2023-10-04T00:44:48.108Z,1015.58
2023-10-04T00:45:48.110Z,1015.60
2023-10-04T00:46:48.062Z,1015.63
2023-10-04T00:47:48.114Z,1015.66
2023-10-04T00:48:48.120Z,1015.67
2023-10-04T00:49:48.084Z,1015.68
2023-10-04T00:50:48.053Z,1015.67
2023-10-04T00:51:48.027Z,1015.68
2023-10-04T00:52:48.022Z,1015.67
2023-10-04T00:53:48.015Z,1015.69
2023-10-04T00:54:47.988Z,1015.70
2023-10-04T00:55:47.985Z,1015.71
2023-10-04T00:56:47.981Z,1015.71
2023-10-04T00:57:47.962Z,1015.72
2023-10-04T00:58:47.951Z,1015.72
2023-10-04T00:59:47.953Z,1015.73
2023-10-04T01:00:47.917Z,1015.70
2023-10-04T01:01:47.946Z,1015.71
2023-10-04T01:02:47.967Z,1015.74
2023-10-04T01:03:48.049Z,1015.74
2023-10-04T01:04:47.881Z,1015.76
2023-10-04T01:05:47.944Z,1015.74
2023-10-04T01:06:47.854Z,1015.73
2023-10-04T01:07:47.848Z,1015.75
2023-10-04T01:08:47.850Z,1015.76
2023-10-04T01:09:47.845Z,1015.73
2023-10-04T01:10:47.811Z,1015.76
2023-10-04T01:11:47.828Z,1015.76
2023-10-04T01:12:47.805Z,1015.75
2023-10-04T01:13:47.794Z,1015.78
2023-10-04T01:14:47.804Z,1015.79
2023-10-04T01:15:47.775Z,1015.78
2023-10-04T01:16:48.324Z,1015.80
2023-10-04T01:17:47.783Z,1015.79
2023-10-04T01:18:47.751Z,1015.78
2023-10-04T01:19:47.814Z,1015.82
2023-10-04T01:20:47.863Z,1015.83
2023-10-04T01:21:47.706Z,1015.85
2023-10-04T01:22:47.685Z,1015.86
2023-10-04T01:23:47.707Z,1015.87
2023-10-04T01:24:47.663Z,1015.84
2023-10-04T01:25:47.914Z,1015.85
2023-10-04T01:26:47.679Z,1015.84
2023-10-04T01:27:47.672Z,1015.83
2023-10-04T01:28:47.667Z,1015.84
2023-10-04T01:29:47.632Z,1015.84
2023-10-04T06:00:46.360Z,1016.28
2023-10-04T06:01:47.244Z,1016.26
2023-10-04T06:02:47.260Z,1016.29
2023-10-04T06:03:47.355Z,1016.32
2023-10-04T06:04:47.280Z,1016.36
2023-10-04T06:05:47.202Z,1016.39
2023-10-04T06:06:47.283Z,1016.43
2023-10-04T06:07:47.146Z,1016.46
2023-10-04T06:08:47.292Z,1016.49
2023-10-04T06:09:47.143Z,1016.54
2023-10-04T06:10:47.133Z,1016.53
2023-10-04T06:11:47.122Z,1016.55
2023-10-04T06:12:47.144Z,1016.55
2023-10-04T06:13:47.074Z,1016.55
2023-10-04T06:14:47.083Z,1016.54
2023-10-04T06:15:47.090Z,1016.53
2023-10-04T06:16:47.073Z,1016.53
2023-10-04T06:17:47.095Z,1016.52
2023-10-04T06:18:47.088Z,1016.53
2023-10-04T06:19:47.053Z,1016.51
2023-10-04T06:20:47.155Z,1016.48
2023-10-04T06:21:47.008Z,1016.47
2023-10-04T06:22:46.998Z,1016.48
2023-10-04T06:23:46.979Z,1016.50
2023-10-04T06:24:47.064Z,1016.50
2023-10-04T06:25:46.966Z,1016.49
2023-10-04T06:26:47.061Z,1016.49
2023-10-04T06:27:46.954Z,1016.48
2023-10-04T06:28:46.943Z,1016.48
2023-10-04T06:29:46.898Z,1016.52
2023-10-04T06:30:47.043Z,1016.52
2023-10-04T06:31:46.912Z,1016.54
2023-10-04T06:32:46.947Z,1016.56
2023-10-04T06:33:46.889Z,1016.57
2023-10-04T06:34:46.879Z,1016.59
2023-10-04T06:35:46.870Z,1016.61
2023-10-04T06:36:46.876Z,1016.62
2023-10-04T06:37:46.862Z,1016.64
2023-10-04T06:38:46.876Z,1016.61
2023-10-04T06:39:46.851Z,1016.60
2023-10-04T06:40:46.797Z,1016.61
2023-10-04T06:41:46.781Z,1016.61
2023-10-04T06:42:46.840Z,1016.61
2023-10-04T06:43:46.744Z,1016.63
2023-10-04T06:44:46.773Z,1016.63
2023-10-04T06:45:46.816Z,1016.65
2023-10-04T06:46:46.781Z,1016.67
2023-10-04T06:47:46.750Z,1016.66
2023-10-04T06:48:46.711Z,1016.65
2023-10-04T06:49:46.690Z,1016.60
2023-10-04T06:50:46.778Z,1016.59
2023-10-04T06:51:46.714Z,1016.61
2023-10-04T06:52:46.672Z,1016.63
2023-10-04T06:53:46.646Z,1016.64
2023-10-04T06:54:46.715Z,1016.65
2023-10-04T06:55:46.624Z,1016.64
2023-10-04T06:56:46.648Z,1016.64
2023-10-04T06:57:46.671Z,1016.65
2023-10-04T06:58:46.607Z,1016.66
2023-10-04T06:59:46.591Z,1016.69
2023-10-04T07:00:46.636Z,1016.76
2023-10-04T07:01:46.577Z,1016.74
2023-10-04T07:02:46.586Z,1016.74
2023-10-04T07:03:46.585Z,1016.72
2023-10-04T07:04:46.547Z,1016.73
2023-10-04T07:05:46.512Z,1016.73
2023-10-04T07:06:46.564Z,1016.76
2023-10-04T07:07:46.492Z,1016.81
2023-10-04T07:08:46.492Z,1016.82
2023-10-04T07:09:46.553Z,1016.82
2023-10-04T07:12:02.870Z,1016.94
2023-10-04T07:13:03.827Z,1016.99
2023-10-04T07:14:03.745Z,1017.04
2023-10-04T07:15:03.725Z,1017.03
2023-10-04T07:16:03.788Z,1017.04
2023-10-04T07:17:03.726Z,1017.06
2023-10-04T07:18:03.748Z,1017.04
2023-10-04T07:19:04.024Z,1017.07
2023-10-04T07:20:03.687Z,1017.05
2023-10-04T07:21:09.741Z,1017.03
2023-10-04T07:22:03.642Z,1017.00
2023-10-04T07:23:03.724Z,1017.00
2023-10-04T07:24:03.854Z,1017.01
2023-10-04T07:25:03.650Z,1017.04
2023-10-04T07:26:03.590Z,1017.05
2023-10-04T07:27:03.633Z,1017.10
2023-10-04T07:28:03.573Z,1017.10
2023-10-04T07:29:03.832Z,1017.09
2023-10-04T07:30:03.562Z,1017.05
2023-10-04T07:31:03.798Z,1017.03
2023-10-04T07:32:03.709Z,1017.00
2023-10-04T07:33:03.566Z,1017.01
2023-10-04T07:34:03.886Z,1017.00
2023-10-04T07:35:03.556Z,1017.02
2023-10-04T07:36:03.488Z,1017.03
2023-10-04T07:37:03.481Z,1017.04
2023-10-04T07:38:03.714Z,1017.07
2023-10-04T07:39:03.454Z,1017.09
2023-10-04T07:40:03.453Z,1017.10
2023-10-04T07:41:03.636Z,1017.14
2023-10-04T07:42:03.464Z,1017.13
2023-10-04T07:43:04.164Z,1017.20
2023-10-04T07:44:03.682Z,1017.22
2023-10-04T07:45:03.417Z,1017.22
2023-10-04T07:46:03.555Z,1017.25
2023-10-04T07:47:03.418Z,1017.22
2023-10-04T07:48:03.620Z,1017.23
2023-10-04T07:49:03.363Z,1017.23
2023-10-04T07:50:03.357Z,1017.25
2023-10-04T07:51:03.347Z,1017.28
2023-10-04T07:52:03.304Z,1017.31
2023-10-04T07:53:03.337Z,1017.32
2023-10-04T07:54:03.422Z,1017.35
2023-10-04T07:55:03.295Z,1017.34
2023-10-04T07:56:03.294Z,1017.33
2023-10-04T07:57:03.266Z,1017.35
2023-10-04T07:58:03.245Z,1017.37
2023-10-04T07:59:03.268Z,1017.38
2023-10-04T08:00:03.225Z,1017.38
2023-10-04T08:01:03.299Z,1017.39
2023-10-04T08:02:03.208Z,1017.34
2023-10-04T08:03:03.253Z,1017.35
2023-10-04T08:04:03.419Z,1017.37
2023-10-04T08:05:03.193Z,1017.32
2023-10-04T08:06:03.180Z,1017.31
2023-10-04T08:07:03.231Z,1017.30
2023-10-04T08:08:05.484Z,1017.34
2023-10-04T08:09:03.150Z,1017.32
2023-10-04T08:10:03.132Z,1017.32
2023-10-04T08:11:03.161Z,1017.33
2023-10-04T08:12:03.095Z,1017.30
2023-10-04T08:13:03.100Z,1017.30
2023-10-04T08:14:03.319Z,1017.31
2023-10-04T08:15:03.078Z,1017.31
2023-10-04T08:16:03.208Z,1017.32
2023-10-04T08:17:03.155Z,1017.32
2023-10-04T08:18:03.223Z,1017.35
2023-10-04T08:19:03.131Z,1017.35
2023-10-04T08:20:04.171Z,1017.35
2023-10-04T08:21:03.054Z,1017.38
2023-10-04T08:22:03.026Z,1017.37
2023-10-04T08:23:03.049Z,1017.35
2023-10-04T08:24:03.258Z,1017.36
2023-10-04T08:25:02.973Z,1017.34
2023-10-04T08:26:02.953Z,1017.36
2023-10-04T08:27:02.966Z,1017.39
2023-10-04T08:28:02.985Z,1017.35
2023-10-04T08:29:03.109Z,1017.35
2023-10-04T08:30:03.246Z,1017.33
2023-10-04T08:31:03.010Z,1017.31
2023-10-04T08:32:03.020Z,1017.29
2023-10-04T08:33:02.934Z,1017.32
2023-10-04T08:34:03.150Z,1017.31
2023-10-04T08:35:02.898Z,1017.33
2023-10-04T08:36:02.847Z,1017.31
2023-10-04T08:37:02.853Z,1017.31
2023-10-04T08:38:02.858Z,1017.30
2023-10-04T08:39:02.825Z,1017.28
2023-10-04T08:40:02.816Z,1017.30
2023-10-04T08:41:02.810Z,1017.32
2023-10-04T08:42:02.781Z,1017.29
2023-10-04T08:43:02.786Z,1017.32
2023-10-04T08:44:03.119Z,1017.33
2023-10-04T08:45:02.755Z,1017.34
2023-10-04T08:46:02.818Z,1017.32
2023-10-04T08:47:02.783Z,1017.33
2023-10-04T08:48:02.850Z,1017.34
2023-10-04T08:49:02.830Z,1017.32
2023-10-04T08:50:02.705Z,1017.36
2023-10-04T08:51:02.726Z,1017.34
2023-10-04T08:52:02.720Z,1017.42
2023-10-04T08:53:02.717Z,1017.38
2023-10-04T08:54:02.655Z,1017.35
2023-10-04T08:55:02.662Z,1017.38
2023-10-04T08:56:02.702Z,1017.36
2023-10-04T08:57:02.639Z,1017.36
2023-10-04T08:58:02.631Z,1017.35
2023-10-04T08:59:02.657Z,1017.37
2023-10-04T09:00:11.327Z,1017.33
2023-10-04T09:01:02.791Z,1017.34
2023-10-04T09:02:02.597Z,1017.30
2023-10-04T09:03:02.744Z,1017.29
2023-10-04T09:04:02.690Z,1017.28
2023-10-04T09:05:02.613Z,1017.28
2023-10-04T09:06:02.529Z,1017.28
2023-10-04T09:07:02.520Z,1017.32
2023-10-04T09:08:02.525Z,1017.35
2023-10-04T09:09:02.501Z,1017.34
2023-10-04T09:10:02.484Z,1017.34
2023-10-04T09:11:02.505Z,1017.35
2023-10-04T09:12:02.451Z,1017.36
2023-10-04T09:13:02.487Z,1017.36
2023-10-04T09:14:02.512Z,1017.33
2023-10-04T09:15:02.518Z,1017.31
2023-10-04T09:16:02.582Z,1017.32
2023-10-04T09:17:02.440Z,1017.28
2023-10-04T09:18:02.439Z,1017.30
2023-10-04T09:19:02.394Z,1017.36
2023-10-04T09:20:02.376Z,1017.34
2023-10-04T09:21:02.371Z,1017.35
2023-10-04T09:22:02.371Z,1017.34
2023-10-04T09:23:02.373Z,1017.35
2023-10-04T09:24:02.576Z,1017.31
2023-10-04T09:25:02.411Z,1017.30
2023-10-04T09:26:02.300Z,1017.33
2023-10-04T09:27:02.307Z,1017.31
2023-10-04T09:28:02.292Z,1017.30
2023-10-04T09:29:02.294Z,1017.28
2023-10-04T09:30:02.262Z,1017.27
2023-10-04T09:31:02.364Z,1017.29
2023-10-04T09:32:02.250Z,1017.23
2023-10-04T09:33:02.287Z,1017.22
2023-10-04T09:34:02.321Z,1017.19
2023-10-04T09:35:02.221Z,1017.21
2023-10-04T09:36:02.221Z,1017.23
2023-10-04T09:37:02.271Z,1017.23
2023-10-04T09:38:02.202Z,1017.22
2023-10-04T09:39:02.189Z,1017.23
2023-10-04T09:40:02.158Z,1017.25
2023-10-04T09:41:02.164Z,1017.21
2023-10-04T09:42:02.130Z,1017.21
2023-10-04T09:43:02.168Z,1017.18
2023-10-04T09:44:02.320Z,1017.17
2023-10-04T09:45:02.112Z,1017.18
2023-10-04T09:46:02.141Z,1017.15
2023-10-04T09:47:02.191Z,1017.15
2023-10-04T09:48:02.115Z,1017.17
2023-10-04T09:49:02.148Z,1017.20
2023-10-04T09:50:02.623Z,1017.18
2023-10-04T09:51:02.057Z,1017.18
2023-10-04T09:52:02.142Z,1017.26
2023-10-04T09:53:02.043Z,1017.22
2023-10-04T09:54:02.140Z,1017.23
2023-10-04T09:55:02.029Z,1017.23
2023-10-04T09:56:01.987Z,1017.32
2023-10-04T09:57:01.994Z,1017.28
2023-10-04T09:58:01.955Z,1017.30
2023-10-04T09:59:01.983Z,1017.31
2023-10-04T10:00:01.969Z,1017.25
2023-10-04T10:01:02.049Z,1017.27
2023-10-04T10:02:01.918Z,1017.23
2023-10-04T10:03:01.981Z,1017.25
2023-10-04T10:04:01.972Z,1017.21
2023-10-04T10:05:01.958Z,1017.19
2023-10-04T10:06:01.920Z,1017.20
2023-10-04T10:07:01.882Z,1017.19
2023-10-04T10:08:01.852Z,1017.17
2023-10-04T10:09:01.931Z,1017.13
2023-10-04T10:10:05.857Z,1017.10
2023-10-04T10:11:01.821Z,1017.08
2023-10-04T10:12:01.890Z,1017.09
2023-10-04T10:13:01.812Z,1017.07
2023-10-04T10:14:01.843Z,1017.04
2023-10-04T10:15:01.870Z,1017.03
2023-10-04T10:16:01.857Z,1017.02
2023-10-04T10:17:01.826Z,1017.06
2023-10-04T10:18:01.826Z,1017.06
2023-10-04T10:19:01.779Z,1017.09
2023-10-04T10:20:01.787Z,1017.09
2023-10-04T10:21:01.719Z,1017.14
2023-10-04T10:22:01.723Z,1017.06
2023-10-04T10:23:01.698Z,1017.04
2023-10-04T10:24:01.744Z,1017.07
2023-10-04T10:25:01.678Z,1017.03
2023-10-04T10:26:01.695Z,1017.04
2023-10-04T10:27:01.680Z,1017.07
2023-10-04T10:28:01.672Z,1017.04
2023-10-04T10:29:01.653Z,1017.04
2023-10-04T10:30:01.732Z,1017.04
2023-10-04T10:31:01.696Z,1017.01
2023-10-04T10:32:01.645Z,1017.04
2023-10-04T10:33:01.691Z,1017.05
2023-10-04T10:34:01.739Z,1017.08
2023-10-04T10:35:01.626Z,1017.04
2023-10-04T10:36:01.575Z,1017.00
2023-10-04T10:37:01.575Z,1016.99
2023-10-04T10:38:01.546Z,1016.97
2023-10-04T10:39:01.542Z,1017.01
2023-10-04T10:40:01.597Z,1016.97
2023-10-04T10:41:01.512Z,1016.95
2023-10-04T10:42:01.509Z,1017.02
2023-10-04T10:43:01.484Z,1016.95
2023-10-04T10:44:09.879Z,1016.94
2023-10-04T10:45:01.472Z,1016.97
2023-10-04T10:46:01.690Z,1016.91
2023-10-04T10:47:01.513Z,1016.90
2023-10-04T10:48:01.501Z,1016.86
2023-10-04T10:49:01.555Z,1016.86
2023-10-04T10:50:01.456Z,1016.83
2023-10-04T10:51:01.410Z,1016.82
2023-10-04T10:52:01.391Z,1016.82
2023-10-04T10:53:01.364Z,1016.84
2023-10-04T10:54:01.372Z,1016.85
2023-10-04T10:55:01.352Z,1016.88
2023-10-04T10:56:01.387Z,1016.89
2023-10-04T10:57:01.330Z,1016.87
2023-10-04T10:58:01.382Z,1016.84
2023-10-04T10:59:01.312Z,1016.82
2023-10-04T11:00:01.320Z,1016.82
2023-10-04T11:01:01.370Z,1016.80
2023-10-04T11:02:01.397Z,1016.81
2023-10-04T11:03:01.377Z,1016.80
2023-10-04T11:04:01.611Z,1016.81
2023-10-04T11:05:01.260Z,1016.80
2023-10-04T11:06:01.270Z,1016.80
2023-10-04T11:07:01.234Z,1016.81
2023-10-04T11:08:01.247Z,1016.82
2023-10-04T11:09:01.230Z,1016.78
2023-10-04T11:10:01.330Z,1016.85
2023-10-04T11:11:01.294Z,1016.82
2023-10-04T11:12:01.182Z,1016.84
2023-10-04T11:13:01.212Z,1016.83
2023-10-04T11:14:01.187Z,1016.81
2023-10-04T11:15:01.142Z,1016.81
2023-10-04T11:16:01.161Z,1016.82
2023-10-04T11:17:01.171Z,1016.81
2023-10-04T11:18:01.144Z,1016.80
2023-10-04T11:19:01.160Z,1016.78
2023-10-04T11:20:01.122Z,1016.78
2023-10-04T11:21:01.082Z,1016.76
2023-10-04T11:22:01.087Z,1016.75
2023-10-04T11:23:01.065Z,1016.75
2023-10-04T11:24:01.055Z,1016.72
2023-10-04T11:25:01.031Z,1016.73
2023-10-04T11:26:01.030Z,1016.72
2023-10-04T11:27:01.010Z,1016.69
2023-10-04T11:28:01.054Z,1016.67
2023-10-04T11:29:00.992Z,1016.64
2023-10-04T11:30:00.992Z,1016.66
2023-10-04T11:31:01.044Z,1016.66
2023-10-04T11:32:01.006Z,1016.66
2023-10-04T11:33:01.092Z,1016.63
2023-10-04T11:34:00.972Z,1016.63
2023-10-04T11:35:00.935Z,1016.64
2023-10-04T11:36:00.919Z,1016.60
2023-10-04T11:37:00.908Z,1016.61
2023-10-04T11:38:00.923Z,1016.61
2023-10-04T11:39:00.875Z,1016.60
2023-10-04T11:40:00.929Z,1016.62
2023-10-04T11:41:00.872Z,1016.62
2023-10-04T11:42:00.853Z,1016.61
2023-10-04T11:43:00.921Z,1016.57
2023-10-04T11:44:00.849Z,1016.55
2023-10-04T11:45:00.826Z,1016.55
2023-10-04T11:46:01.082Z,1016.56
2023-10-04T11:47:00.825Z,1016.53
2023-10-04T11:48:00.866Z,1016.58
2023-10-04T11:49:00.897Z,1016.54
2023-10-04T11:50:01.163Z,1016.58
2023-10-04T11:51:00.747Z,1016.52
2023-10-04T11:52:00.774Z,1016.53
2023-10-04T11:53:00.743Z,1016.53
2023-10-04T11:54:00.730Z,1016.49
2023-10-04T11:55:00.826Z,1016.48
2023-10-04T11:56:00.748Z,1016.47
2023-10-04T11:57:00.696Z,1016.42
2023-10-04T11:58:00.693Z,1016.41
2023-10-04T11:59:00.683Z,1016.37
2023-10-04T12:00:00.675Z,1016.35
2023-10-04T12:01:00.692Z,1016.34
2023-10-04T12:02:00.708Z,1016.30
2023-10-04T12:03:00.717Z,1016.29
2023-10-04T12:04:00.779Z,1016.26
2023-10-04T12:05:00.663Z,1016.17
2023-10-04T12:06:00.631Z,1016.19
2023-10-04T12:07:00.668Z,1016.13
2023-10-04T12:08:00.578Z,1016.16
2023-10-04T12:09:00.576Z,1016.07
2023-10-04T12:10:00.655Z,1016.11
2023-10-04T12:11:00.547Z,1016.05
2023-10-04T12:12:00.769Z,1016.04
2023-10-04T12:13:00.552Z,1016.04
2023-10-04T12:14:00.605Z,1016.02
2023-10-04T12:15:00.545Z,1016.02
2023-10-04T12:16:00.534Z,1016.02
2023-10-04T12:17:00.574Z,1016.02
2023-10-04T12:18:00.523Z,1016.01
2023-10-04T12:19:00.479Z,1015.97
2023-10-04T12:20:00.476Z,1015.95
2023-10-04T12:21:00.435Z,1015.99
2023-10-04T12:22:00.508Z,1015.98
2023-10-04T12:23:00.409Z,1015.90
2023-10-04T12:24:00.445Z,1015.87
2023-10-04T12:25:00.433Z,1015.86
2023-10-04T12:26:00.539Z,1015.83
2023-10-04T12:27:00.382Z,1015.84
2023-10-04T12:28:00.464Z,1015.80
2023-10-04T12:29:00.344Z,1015.76
2023-10-04T12:30:00.425Z,1015.73
2023-10-04T12:31:00.367Z,1015.72
2023-10-04T12:32:00.628Z,1015.71
2023-10-04T12:33:00.328Z,1015.68
2023-10-04T12:34:00.342Z,1015.66
2023-10-04T12:35:00.312Z,1015.66
2023-10-04T12:36:00.306Z,1015.67
2023-10-04T12:37:00.266Z,1015.65
2023-10-04T12:38:00.288Z,1015.65
2023-10-04T12:39:01.116Z,1015.66
2023-10-04T12:40:00.311Z,1015.68
2023-10-04T12:41:00.251Z,1015.65
2023-10-04T12:42:00.234Z,1015.64
2023-10-04T12:43:00.222Z,1015.69
2023-10-04T12:44:00.194Z,1015.70
2023-10-04T12:45:00.177Z,1015.75
2023-10-04T12:46:00.231Z,1015.72
2023-10-04T12:47:00.291Z,1015.78
2023-10-04T12:48:00.201Z,1015.77
2023-10-04T12:49:00.162Z,1015.73
2023-10-04T12:50:00.162Z,1015.72
2023-10-04T12:51:00.112Z,1015.67
2023-10-04T12:52:00.365Z,1015.68
2023-10-04T12:53:00.144Z,1015.68
2023-10-04T12:54:00.101Z,1015.66
2023-10-04T12:55:00.113Z,1015.67
2023-10-04T12:56:00.109Z,1015.72
2023-10-04T12:57:00.052Z,1015.69
2023-10-04T12:58:00.093Z,1015.75
2023-10-04T12:59:00.058Z,1015.76
2023-10-04T13:00:00.054Z,1015.71
2023-10-04T13:01:00.042Z,1015.68
2023-10-04T13:02:00.102Z,1015.66
2023-10-04T13:03:00.051Z,1015.71
2023-10-04T13:04:00.113Z,1015.70
2023-10-04T13:05:00.066Z,1015.70
2023-10-04T13:05:59.957Z,1015.70
2023-10-04T13:06:59.963Z,1015.65
2023-10-04T13:07:59.947Z,1015.68
2023-10-04T13:08:59.905Z,1015.69
2023-10-04T13:10:00.017Z,1015.66
2023-10-04T13:10:59.934Z,1015.66
2023-10-04T13:11:59.898Z,1015.63
2023-10-04T13:12:59.917Z,1015.69
2023-10-04T13:14:00.020Z,1015.63
2023-10-04T13:14:59.848Z,1015.62
2023-10-04T13:15:59.943Z,1015.66
2023-10-04T13:16:59.859Z,1015.68
2023-10-04T13:18:00.746Z,1015.70
2023-10-04T13:18:59.851Z,1015.65
2023-10-04T13:19:59.811Z,1015.62
2023-10-04T13:20:59.785Z,1015.60
2023-10-04T13:21:59.852Z,1015.59
2023-10-04T13:22:59.786Z,1015.60
2023-10-04T13:23:59.760Z,1015.66
2023-10-04T13:24:59.807Z,1015.58
2023-10-04T13:25:59.864Z,1015.53
2023-10-04T13:26:59.728Z,1015.54
2023-10-04T13:27:59.785Z,1015.51
2023-10-04T13:28:59.740Z,1015.53
2023-10-04T13:29:59.698Z,1015.52
2023-10-04T13:30:59.739Z,1015.48
2023-10-04T13:31:59.728Z,1015.47
2023-10-04T13:32:59.691Z,1015.48
2023-10-04T13:33:59.708Z,1015.50
2023-10-04T13:34:59.684Z,1015.45
2023-10-04T13:35:59.698Z,1015.45
2023-10-04T13:36:59.613Z,1015.51
2023-10-04T13:37:59.611Z,1015.48
2023-10-04T13:38:59.606Z,1015.46
2023-10-04T13:39:59.677Z,1015.48
2023-10-04T13:40:59.602Z,1015.49
2023-10-04T13:41:59.578Z,1015.45
2023-10-04T13:42:59.584Z,1015.49
2023-10-04T13:43:59.544Z,1015.38
2023-10-04T13:44:59.520Z,1015.37
2023-10-04T13:45:59.586Z,1015.37
2023-10-04T13:46:59.580Z,1015.34
2023-10-04T13:47:59.584Z,1015.32
2023-10-04T13:48:59.599Z,1015.39
2023-10-04T13:49:59.503Z,1015.32
2023-10-04T13:50:59.470Z,1015.34
2023-10-04T13:51:59.590Z,1015.34
2023-10-04T13:52:59.463Z,1015.34
2023-10-04T13:53:59.457Z,1015.32
2023-10-04T13:54:59.434Z,1015.32
2023-10-04T13:55:59.418Z,1015.32
2023-10-04T13:56:59.397Z,1015.31
2023-10-04T13:57:59.468Z,1015.33
2023-10-04T13:58:59.386Z,1015.32
2023-10-04T13:59:59.388Z,1015.34
2023-10-04T14:00:59.490Z,1015.36
2023-10-04T14:01:59.430Z,1015.38
2023-10-04T14:02:59.434Z,1015.39
2023-10-04T14:03:59.492Z,1015.43
2023-10-04T14:04:59.465Z,1015.41
2023-10-04T14:05:59.364Z,1015.42
2023-10-04T14:06:59.345Z,1015.38
2023-10-04T14:07:59.322Z,1015.34
2023-10-04T14:08:59.298Z,1015.37
2023-10-04T14:09:59.352Z,1015.31
2023-10-04T14:10:59.292Z,1015.33
2023-10-04T14:11:59.260Z,1015.31
2023-10-04T14:12:59.667Z,1015.35
2023-10-04T14:13:59.240Z,1015.32
2023-10-04T14:14:59.216Z,1015.34
2023-10-04T14:15:59.705Z,1015.32
2023-10-04T14:16:59.260Z,1015.30
2023-10-04T14:17:59.235Z,1015.27
2023-10-04T14:18:59.215Z,1015.27
2023-10-04T14:19:59.161Z,1015.27
2023-10-04T14:20:59.160Z,1015.29
2023-10-04T14:21:59.223Z,1015.29
2023-10-04T14:22:59.194Z,1015.32
2023-10-04T14:23:59.129Z,1015.27
2023-10-04T14:24:59.164Z,1015.27
2023-10-04T14:25:59.081Z,1015.31
2023-10-04T14:26:59.099Z,1015.31
2023-10-04T14:27:59.120Z,1015.29
2023-10-04T14:28:59.075Z,1015.27
2023-10-04T14:29:59.052Z,1015.29
2023-10-04T14:30:59.105Z,1015.26
2023-10-04T14:31:59.180Z,1015.24
2023-10-04T14:32:59.115Z,1015.30
2023-10-04T14:33:59.047Z,1015.21
2023-10-04T14:34:59.030Z,1015.18
2023-10-04T14:35:59.005Z,1015.16
2023-10-04T14:36:59.032Z,1015.18
2023-10-04T14:37:58.965Z,1015.16
2023-10-04T14:38:58.988Z,1015.21
2023-10-04T14:39:58.955Z,1015.18
2023-10-04T14:41:00.161Z,1015.15
2023-10-04T14:41:58.921Z,1015.12
2023-10-04T14:42:58.964Z,1015.07
2023-10-04T14:43:58.908Z,1015.06
2023-10-04T14:44:58.917Z,1015.05
2023-10-04T14:45:59.121Z,1015.02
2023-10-04T14:46:58.919Z,1014.97
2023-10-04T14:47:58.905Z,1014.95
2023-10-04T14:48:58.900Z,1014.89
2023-10-04T14:49:59.056Z,1014.92
2023-10-04T14:51:11.867Z,1014.90
2023-10-04T14:51:58.866Z,1014.89
2023-10-04T14:52:58.866Z,1014.92
2023-10-04T14:53:58.788Z,1014.95
2023-10-04T14:54:58.805Z,1014.90
2023-10-04T14:56:02.335Z,1014.93
2023-10-04T14:56:58.768Z,1014.89
2023-10-04T14:57:58.812Z,1014.92
2023-10-04T14:58:58.766Z,1014.93
2023-10-04T14:59:58.713Z,1014.96
2023-10-04T15:00:58.903Z,1014.90
2023-10-04T15:01:58.735Z,1014.92
2023-10-04T15:02:58.808Z,1014.93
2023-10-04T15:03:59.063Z,1014.92
2023-10-04T15:04:58.895Z,1014.94
2023-10-04T15:05:58.702Z,1014.95
2023-10-04T15:06:58.681Z,1014.92
2023-10-04T15:07:58.643Z,1014.92
2023-10-04T15:08:58.653Z,1015.00
2023-10-04T15:09:58.764Z,1014.90
2023-10-04T15:10:58.630Z,1014.92
2023-10-04T15:11:58.592Z,1014.95
2023-10-04T15:12:58.665Z,1014.97
2023-10-04T15:13:58.572Z,1014.98
2023-10-04T15:14:58.594Z,1015.00
2023-10-04T15:16:10.217Z,1015.04
2023-10-04T15:16:58.655Z,1015.00
2023-10-04T15:17:58.586Z,1015.04
2023-10-04T15:18:58.569Z,1015.01
2023-10-04T15:19:58.509Z,1015.04
2023-10-04T15:20:58.549Z,1015.03
2023-10-04T15:21:58.524Z,1015.04
2023-10-04T15:22:58.491Z,1015.05
2023-10-04T15:23:58.473Z,1015.06
2023-10-04T15:24:58.480Z,1015.02
2023-10-04T15:25:58.478Z,1015.00
2023-10-04T15:26:58.502Z,1015.03
2023-10-04T15:27:58.429Z,1015.01
2023-10-04T15:28:58.431Z,1015.00
2023-10-04T15:29:58.406Z,1014.99
2023-10-04T15:30:58.425Z,1014.99
2023-10-04T15:31:58.429Z,1014.99
2023-10-04T15:32:58.525Z,1015.01
2023-10-04T15:33:58.470Z,1015.01
2023-10-04T15:34:58.374Z,1015.00
2023-10-04T15:35:58.344Z,1015.03
2023-10-04T15:36:58.352Z,1015.05
2023-10-04T15:37:58.353Z,1015.06
2023-10-04T15:38:58.313Z,1015.09
2023-10-04T15:39:58.327Z,1015.12
2023-10-04T15:40:58.286Z,1015.10
2023-10-04T15:41:58.264Z,1015.08
2023-10-04T15:42:58.336Z,1015.05
2023-10-04T15:43:58.263Z,1015.02
2023-10-04T15:44:58.248Z,1015.04
2023-10-04T15:45:58.290Z,1015.06
2023-10-04T15:46:58.274Z,1015.12
2023-10-04T15:47:58.255Z,1015.15
2023-10-04T15:48:58.315Z,1015.13
2023-10-04T15:49:58.222Z,1015.15
2023-10-04T15:50:58.188Z,1015.17
2023-10-04T15:51:58.209Z,1015.16
2023-10-04T15:52:58.169Z,1015.18
2023-10-04T15:53:58.149Z,1015.18
2023-10-04T15:54:58.220Z,1015.17
2023-10-04T15:55:58.121Z,1015.17
2023-10-04T15:56:58.126Z,1015.20
2023-10-04T15:57:58.160Z,1015.21
2023-10-04T15:58:58.100Z,1015.24
2023-10-04T15:59:58.074Z,1015.22
2023-10-04T16:00:58.140Z,1015.21
2023-10-04T16:01:58.118Z,1015.22
2023-10-04T16:02:58.083Z,1015.18
2023-10-04T16:03:58.084Z,1015.18
2023-10-04T16:04:58.172Z,1015.15
2023-10-04T16:05:58.051Z,1015.13
2023-10-04T16:06:58.071Z,1015.07
2023-10-04T16:07:58.028Z,1015.04
2023-10-04T16:08:58.038Z,1015.01
2023-10-04T16:09:58.010Z,1015.02
2023-10-04T16:10:57.979Z,1015.04
2023-10-04T16:11:57.955Z,1015.05
2023-10-04T16:12:58.112Z,1015.05
2023-10-04T16:13:58.016Z,1015.03
2023-10-04T16:14:58.891Z,1015.01
2023-10-04T16:15:57.921Z,1014.99
2023-10-04T16:16:58.932Z,1015.00
2023-10-04T16:17:57.934Z,1014.98
2023-10-04T16:18:57.934Z,1014.97
2023-10-04T16:19:57.889Z,1014.95
2023-10-04T16:20:57.869Z,1014.96
2023-10-04T16:21:57.869Z,1014.95
2023-10-04T16:22:57.906Z,1014.96
2023-10-04T16:23:57.811Z,1014.96
2023-10-04T16:24:57.888Z,1014.97
2023-10-04T16:25:57.816Z,1014.99
2023-10-04T16:26:57.840Z,1014.99
2023-10-04T16:27:57.797Z,1014.97
2023-10-04T16:28:57.843Z,1014.99
2023-10-04T16:29:57.759Z,1014.99
2023-10-04T16:30:57.815Z,1015.00
2023-10-04T16:31:57.793Z,1014.99
2023-10-04T16:32:57.759Z,1014.98
2023-10-04T16:33:57.788Z,1014.97
2023-10-04T16:34:57.822Z,1014.97
2023-10-04T16:35:57.691Z,1014.97
2023-10-04T16:36:57.742Z,1014.96